^^
Station Historical Data
 
Daily Summary for March 01, 2015 Units:  English    Metric   Both
« Previous Day
Next Day »
Daily Weekly Monthly Yearly Custom
  Current: High: Low: Average:
Temperature: 32.0 °F 32.3 °F 21.5 °F 26.1 °F
Dew Point: 31.0 °F 31.3 °F -7.8 °F 13.6 °F
Humidity: 96% 96% 26% 64%
Wind Speed: 5.7mph 11.1mph 0.1mph 3.7mph
Wind Gust: 8.3mph 15.2mph - -
WindSouth - - SE
Pressure: 30.35 in 30.51 in 30.35 in -
Precipitation: 0.00 in      
Historical Graphs
 
 
Tabular Data for March 01, 2015
Time Temperature Dew Point Pressure Wind Wind Speed Wind Gust Humidity Rainfall Rate (Hourly)
00:01 21.7 °F -7.8 °F 30.51 in ENE 1.6 mph 2.2 mph 26% 0.00 in
00:06 21.7 °F -7.8 °F 30.51 in ESE 1.9 mph 2.2 mph 26% 0.00 in
00:11 22.1 °F -7.5 °F 30.51 in ESE 1.9 mph 2.2 mph 26% 0.00 in
00:16 22.3 °F -7.3 °F 30.51 in East 1.2 mph 2.2 mph 26% 0.00 in
00:21 22.3 °F -7.3 °F 30.51 in East 1.6 mph 3.8 mph 26% 0.00 in
00:26 22.4 °F -6.4 °F 30.51 in East 1.4 mph 3.8 mph 27% 0.00 in
00:31 22.6 °F -6.2 °F 30.50 in North 0.7 mph 1.6 mph 27% 0.00 in
00:36 22.8 °F -5.3 °F 30.50 in NE 1.1 mph 2.2 mph 28% 0.00 in
00:41 23.0 °F -5.9 °F 30.50 in ENE 1.1 mph 2.2 mph 27% 0.00 in
00:46 23.0 °F -5.9 °F 30.50 in NNE 1.2 mph 2.2 mph 27% 0.00 in
00:51 23.2 °F -5.8 °F 30.50 in NNE 1.4 mph 2.2 mph 27% 0.00 in
00:56 23.2 °F -6.6 °F 30.50 in NE 1.1 mph 1.6 mph 26% 0.00 in
01:01 23.2 °F -6.6 °F 30.50 in NE 0.7 mph 1.6 mph 26% 0.00 in
01:06 23.2 °F -6.6 °F 30.50 in East 0.6 mph 0.7 mph 26% 0.00 in
01:11 23.3 °F -5.6 °F 30.50 in NE 0.9 mph 1.6 mph 27% 0.00 in
01:16 23.3 °F -5.6 °F 30.50 in NNE 1.3 mph 2.2 mph 27% 0.00 in
01:21 23.5 °F -6.2 °F 30.50 in NNE 1.6 mph 2.2 mph 26% 0.00 in
01:26 23.5 °F -6.2 °F 30.50 in NNE 1.7 mph 2.2 mph 26% 0.00 in
01:31 23.7 °F -6.1 °F 30.50 in NNE 1.8 mph 3.1 mph 26% 0.00 in
01:36 23.5 °F -6.2 °F 30.50 in NNE 2.1 mph 3.1 mph 26% 0.00 in
01:41 23.5 °F -6.2 °F 30.50 in NNE 1.9 mph 3.1 mph 26% 0.00 in
01:46 23.5 °F -6.2 °F 30.50 in NNE 1.4 mph 1.6 mph 26% 0.00 in
01:51 23.5 °F -4.7 °F 30.50 in NNE 0.8 mph 1.6 mph 28% 0.00 in
01:56 23.3 °F -3.4 °F 30.50 in NNE 0.5 mph 1.6 mph 30% 0.00 in
02:01 23.0 °F -3.1 °F 30.50 in NNE 0.7 mph 1.6 mph 31% 0.00 in
02:06 23.0 °F -3.1 °F 30.50 in North 0.8 mph 1.6 mph 31% 0.00 in
02:11 22.8 °F -0.1 °F 30.50 in NNE 0.6 mph 0.7 mph 36% 0.00 in
02:16 22.8 °F -0.1 °F 30.49 in NE 1.0 mph 1.6 mph 36% 0.00 in
02:21 23.0 °F -1.8 °F 30.48 in NE 1.4 mph 2.2 mph 33% 0.00 in
02:26 23.2 °F -2.3 °F 30.48 in East 1.4 mph 2.2 mph 32% 0.00 in
02:31 23.0 °F -1.1 °F 30.48 in ESE 0.9 mph 1.6 mph 34% 0.00 in
02:36 22.8 °F -0.7 °F 30.48 in East 0.3 mph 0.7 mph 35% 0.00 in
02:41 23.0 °F 0.1 °F 30.49 in NE 0.4 mph 0.7 mph 36% 0.00 in
02:46 23.2 °F -0.4 °F 30.48 in ENE 0.5 mph 1.6 mph 35% 0.00 in
02:51 23.3 °F -1.4 °F 30.48 in NNE 0.6 mph 1.6 mph 33% 0.00 in
02:56 23.5 °F -1.3 °F 30.48 in NW 0.4 mph 1.6 mph 33% 0.00 in
03:01 23.5 °F -0.7 °F 30.48 in NE 0.1 mph 0.7 mph 34% 0.00 in
03:06 23.5 °F -0.7 °F 30.48 in NE 0.1 mph 0.7 mph 34% 0.00 in
03:11 23.7 °F -0.5 °F 30.48 in North 0.1 mph 0.7 mph 34% 0.00 in
03:16 23.7 °F 0.7 °F 30.48 in NE 0.5 mph 1.6 mph 36% 0.00 in
03:21 23.3 °F 1.5 °F 30.47 in NE 0.6 mph 1.6 mph 38% 0.00 in
03:26 23.2 °F 2.5 °F 30.47 in NNW 0.3 mph 0.7 mph 40% 0.00 in
03:31 23.2 °F 3.5 °F 30.47 in NE 0.1 mph 0.7 mph 42% 0.00 in
03:37 23.0 °F 3.9 °F 30.47 in Calm     43% 0.00 in
03:42 22.8 °F 4.7 °F 30.46 in South 0.2 mph 1.6 mph 45% 0.00 in
03:47 22.3 °F 5.2 °F 30.46 in South 0.9 mph 1.6 mph 47% 0.00 in
03:52 21.9 °F 5.3 °F 30.47 in SSE 0.8 mph 1.6 mph 48% 0.00 in
03:57 21.7 °F 6.0 °F 30.46 in SE 0.3 mph 0.7 mph 50% 0.00 in
04:02 21.7 °F 6.4 °F 30.46 in South 0.2 mph 0.7 mph 51% 0.00 in
04:07 21.7 °F 6.4 °F 30.46 in Calm     51% 0.00 in
04:12 21.9 °F 7.4 °F 30.45 in SE 0.1 mph 0.7 mph 53% 0.00 in
04:17 22.1 °F 8.0 °F 30.45 in SE 0.3 mph 0.7 mph 54% 0.00 in
04:22 21.9 °F 7.9 °F 30.45 in SSE 0.6 mph 0.7 mph 54% 0.00 in
04:27 21.7 °F 8.1 °F 30.46 in South 0.8 mph 1.6 mph 55% 0.00 in
04:32 21.5 °F 7.9 °F 30.45 in North 0.8 mph 1.6 mph 55% 0.00 in
04:37 21.5 °F 8.3 °F 30.45 in North 0.5 mph 0.7 mph 56% 0.00 in
04:42 21.7 °F 8.9 °F 30.45 in South 0.4 mph 0.7 mph 57% 0.00 in
04:47 22.1 °F 9.6 °F 30.44 in SSE 0.6 mph 1.6 mph 58% 0.00 in
04:52 22.3 °F 10.2 °F 30.44 in South 0.7 mph 1.6 mph 59% 0.00 in
04:57 22.6 °F 10.9 °F 30.44 in WSW 0.5 mph 1.6 mph 60% 0.00 in
05:02 22.6 °F 10.9 °F 30.44 in SSW 0.5 mph 1.6 mph 60% 0.00 in
05:07 22.6 °F 10.9 °F 30.44 in South 0.6 mph 0.7 mph 60% 0.00 in
05:12 23.3 °F 12.7 °F 30.43 in SSE 1.3 mph 3.1 mph 63% 0.00 in
05:17 23.5 °F 12.8 °F 30.44 in SSE 1.9 mph 3.1 mph 63% 0.00 in
05:22 23.5 °F 13.2 °F 30.43 in South 2.8 mph 5.4 mph 64% 0.00 in
05:27 23.5 °F 13.5 °F 30.43 in SSE 3.4 mph 5.4 mph 65% 0.00 in
05:32 23.5 °F 13.9 °F 30.42 in SSE 3.4 mph 5.4 mph 66% 0.00 in
05:37 23.7 °F 14.0 °F 30.42 in South 3.5 mph 5.4 mph 66% 0.00 in
05:42 23.7 °F 14.4 °F 30.42 in South 4.1 mph 6.9 mph 67% 0.00 in
05:47 23.9 °F 14.9 °F 30.42 in South 4.9 mph 6.9 mph 68% 0.00 in
05:52 23.9 °F 15.2 °F 30.42 in South 4.6 mph 6.0 mph 69% 0.00 in
05:57 23.9 °F 15.6 °F 30.42 in South 4.2 mph 6.0 mph 70% 0.00 in
06:02 23.9 °F 15.6 °F 30.42 in South 4.0 mph 5.4 mph 70% 0.00 in
06:07 23.9 °F 15.6 °F 30.42 in South 3.9 mph 4.5 mph 70% 0.00 in
06:12 24.1 °F 16.1 °F 30.41 in South 3.3 mph 3.8 mph 71% 0.00 in
06:17 24.2 °F 16.2 °F 30.42 in South 2.8 mph 3.8 mph 71% 0.00 in
06:22 24.4 °F 16.7 °F 30.41 in South 2.7 mph 3.8 mph 72% 0.00 in
06:27 24.6 °F 16.9 °F 30.41 in South 2.7 mph 3.1 mph 72% 0.00 in
06:32 24.8 °F 17.4 °F 30.41 in South 2.6 mph 3.8 mph 73% 0.00 in
06:37 25.0 °F 17.6 °F 30.40 in South 2.3 mph 3.8 mph 73% 0.00 in
06:42 25.1 °F 17.7 °F 30.40 in South 2.4 mph 3.8 mph 73% 0.00 in
06:47 25.3 °F 18.2 °F 30.40 in SSE 2.2 mph 3.1 mph 74% 0.00 in
06:52 25.5 °F 18.4 °F 30.40 in South 1.9 mph 3.1 mph 74% 0.00 in
06:57 25.7 °F 18.6 °F 30.40 in South 1.8 mph 3.1 mph 74% 0.00 in
07:02 25.7 °F 18.6 °F 30.40 in South 1.7 mph 2.2 mph 74% 0.00 in
07:07 26.0 °F 19.2 °F 30.40 in South 1.6 mph 3.1 mph 75% 0.00 in
07:12 26.2 °F 19.7 °F 30.39 in South 2.8 mph 5.4 mph 76% 0.00 in
07:17 26.8 °F 20.6 °F 30.39 in South 4.1 mph 5.4 mph 77% 0.00 in
07:22 27.1 °F 21.8 °F 30.39 in South 5.1 mph 7.6 mph 80% 0.00 in
07:27 27.5 °F 22.4 °F 30.39 in South 5.6 mph 7.6 mph 81% 0.00 in
07:32 27.8 °F 23.4 °F 30.39 in South 5.5 mph 7.6 mph 83% 0.00 in
07:37 28.0 °F 23.8 °F 30.39 in South 6.0 mph 8.3 mph 84% 0.00 in
07:42 28.2 °F 24.3 °F 30.39 in South 6.5 mph 9.2 mph 85% 0.00 in
07:47 28.6 °F 25.2 °F 30.39 in South 7.0 mph 9.8 mph 87% 0.00 in
07:52 28.6 °F 25.2 °F 30.39 in South 7.0 mph 9.8 mph 87% 0.00 in
07:57 28.7 °F 25.7 °F 30.39 in South 6.5 mph 7.6 mph 88% 0.00 in
08:02 28.9 °F 25.8 °F 30.39 in South 6.3 mph 8.3 mph 88% 0.00 in
08:07 29.1 °F 26.3 °F 30.39 in South 6.4 mph 8.3 mph 89% 0.00 in
08:13 29.3 °F 26.5 °F 30.39 in South 6.3 mph 9.2 mph 89% 0.00 in
08:18 29.5 °F 26.9 °F 30.39 in South 6.2 mph 9.2 mph 90% 0.00 in
08:23 29.6 °F 27.1 °F 30.39 in SW 6.0 mph 7.6 mph 90% 0.00 in
08:28 29.8 °F 27.5 °F 30.39 in SSW 6.1 mph 7.6 mph 91% 0.00 in
08:33 30.0 °F 27.7 °F 30.39 in SSW 6.3 mph 7.6 mph 91% 0.00 in
08:38 30.2 °F 28.2 °F 30.39 in SSW 7.0 mph 12.1 mph 92% 0.00 in
08:43 30.4 °F 28.3 °F 30.39 in SSW 7.6 mph 12.1 mph 92% 0.00 in
08:48 30.5 °F 28.5 °F 30.39 in SSW 6.7 mph 9.8 mph 92% 0.00 in
08:53 30.7 °F 28.9 °F 30.39 in SSW 7.6 mph 15.2 mph 93% 0.00 in
08:58 30.9 °F 29.1 °F 30.39 in South 8.2 mph 15.2 mph 93% 0.00 in
09:03 30.9 °F 29.1 °F 30.39 in South 6.6 mph 8.3 mph 93% 0.00 in
09:08 31.1 °F 29.6 °F 30.39 in South 6.6 mph 7.6 mph 94% 0.00 in
09:13 31.1 °F 29.6 °F 30.38 in South 7.1 mph 12.1 mph 94% 0.00 in
09:18 31.3 °F 29.7 °F 30.38 in SSW 8.2 mph 12.1 mph 94% 0.00 in
09:23 31.3 °F 29.7 °F 30.38 in SW 8.0 mph 12.1 mph 94% 0.00 in
09:28 31.4 °F 30.2 °F 30.38 in WSW 7.2 mph 10.7 mph 95% 0.00 in
09:33 31.6 °F 30.1 °F 30.38 in SSW 6.4 mph 10.7 mph 94% 0.00 in
09:38 31.6 °F 30.1 °F 30.38 in SSW 6.3 mph 9.2 mph 94% 0.00 in
09:43 31.6 °F 30.1 °F 30.38 in SSW 7.7 mph 11.4 mph 94% 0.00 in
09:48 31.8 °F 30.5 °F 30.38 in South 7.9 mph 13.0 mph 95% 0.00 in
09:53 32.0 °F 30.7 °F 30.38 in South 10.0 mph 15.2 mph 95% 0.00 in
09:58 32.0 °F 30.7 °F 30.37 in SSW 10.8 mph 15.2 mph 95% 0.00 in
10:03 32.0 °F 31.0 °F 30.37 in South 10.7 mph 14.5 mph 96% 0.00 in
10:08 32.0 °F 31.0 °F 30.37 in South 11.1 mph 14.5 mph 96% 0.00 in
10:13 32.2 °F 31.2 °F 30.37 in SSW 9.5 mph 11.4 mph 96% 0.00 in
10:18 32.2 °F 31.2 °F 30.37 in SSW 8.6 mph 11.4 mph 96% 0.00 in
10:23 32.3 °F 31.3 °F 30.36 in South 8.7 mph 14.5 mph 96% 0.00 in
10:28 32.3 °F 31.3 °F 30.37 in SSW 9.0 mph 14.5 mph 96% 0.00 in
10:33 32.3 °F 31.3 °F 30.37 in SW 9.3 mph 12.1 mph 96% 0.00 in
10:38 32.3 °F 31.3 °F 30.36 in South 8.7 mph 12.1 mph 96% 0.00 in
10:43 32.3 °F 31.1 °F 30.37 in South 8.6 mph 13.0 mph 95% 0.00 in
10:48 32.3 °F 31.3 °F 30.36 in South 9.0 mph 13.0 mph 96% 0.00 in
10:53 32.2 °F 30.9 °F 30.37 in SSW 9.4 mph 14.5 mph 95% 0.00 in
10:58 32.2 °F 31.2 °F 30.36 in SSW 8.9 mph 14.5 mph 96% 0.00 in
11:03 32.2 °F 31.2 °F 30.37 in SSE 7.8 mph 12.1 mph 96% 0.00 in
11:08 32.2 °F 31.2 °F 30.36 in South 8.0 mph 12.1 mph 96% 0.00 in
11:13 32.2 °F 31.2 °F 30.36 in SSW 7.3 mph 9.2 mph 96% 0.00 in
11:18 32.2 °F 31.2 °F 30.36 in SSW 6.4 mph 9.2 mph 96% 0.00 in
11:23 32.0 °F 31.0 °F 30.36 in South 7.0 mph 9.8 mph 96% 0.00 in
11:28 32.0 °F 31.0 °F 30.36 in South 6.7 mph 9.8 mph 96% 0.00 in
11:33 32.0 °F 31.0 °F 30.35 in South 5.7 mph 8.3 mph 96% 0.00 in
Export, Pennsylvania, USA
Compliments of Weather Underground